sensor_id;sensor_type;location;lat;lon;timestamp;temperature;humidity
17740;DHT22;8990;33.226;-97.150;2023-12-14T00:00:10;14.30;94.40
17740;DHT22;8990;33.226;-97.150;2023-12-14T00:02:39;14.30;94.50
17740;DHT22;8990;33.226;-97.150;2023-12-14T00:05:09;14.30;94.80
17740;DHT22;8990;33.226;-97.150;2023-12-14T00:07:38;14.20;95.10
17740;DHT22;8990;33.226;-97.150;2023-12-14T00:10:08;14.20;95.60
17740;DHT22;8990;33.226;-97.150;2023-12-14T00:12:37;14.20;95.40
17740;DHT22;8990;33.226;-97.150;2023-12-14T00:15:08;14.20;94.80
17740;DHT22;8990;33.226;-97.150;2023-12-14T00:17:37;14.20;94.70
17740;DHT22;8990;33.226;-97.150;2023-12-14T00:20:07;14.10;94.70
17740;DHT22;8990;33.226;-97.150;2023-12-14T00:22:36;14.10;95.00
17740;DHT22;8990;33.226;-97.150;2023-12-14T00:25:06;14.10;94.80
17740;DHT22;8990;33.226;-97.150;2023-12-14T00:27:35;14.10;95.00
17740;DHT22;8990;33.226;-97.150;2023-12-14T00:30:05;14.10;95.10
17740;DHT22;8990;33.226;-97.150;2023-12-14T00:32:36;14.00;95.10
17740;DHT22;8990;33.226;-97.150;2023-12-14T00:35:06;14.00;95.20
17740;DHT22;8990;33.226;-97.150;2023-12-14T00:37:35;13.90;95.00
17740;DHT22;8990;33.226;-97.150;2023-12-14T00:40:04;13.90;95.30
17740;DHT22;8990;33.226;-97.150;2023-12-14T00:42:33;13.80;95.40
17740;DHT22;8990;33.226;-97.150;2023-12-14T00:45:03;13.80;95.50
17740;DHT22;8990;33.226;-97.150;2023-12-14T00:47:32;13.70;95.60
17740;DHT22;8990;33.226;-97.150;2023-12-14T00:50:02;13.60;95.70
17740;DHT22;8990;33.226;-97.150;2023-12-14T00:52:31;13.50;95.80
17740;DHT22;8990;33.226;-97.150;2023-12-14T00:55:00;13.50;95.90
17740;DHT22;8990;33.226;-97.150;2023-12-14T00:57:29;13.50;95.90
17740;DHT22;8990;33.226;-97.150;2023-12-14T00:59:59;13.40;96.10
17740;DHT22;8990;33.226;-97.150;2023-12-14T01:02:28;13.30;96.40
17740;DHT22;8990;33.226;-97.150;2023-12-14T01:04:57;13.20;96.50
17740;DHT22;8990;33.226;-97.150;2023-12-14T01:07:28;13.20;96.70
17740;DHT22;8990;33.226;-97.150;2023-12-14T01:09:57;13.10;96.90
17740;DHT22;8990;33.226;-97.150;2023-12-14T01:12:26;13.00;96.90
17740;DHT22;8990;33.226;-97.150;2023-12-14T01:14:55;13.00;97.10
17740;DHT22;8990;33.226;-97.150;2023-12-14T01:17:24;12.90;97.30
17740;DHT22;8990;33.226;-97.150;2023-12-14T01:19:54;12.90;97.50
17740;DHT22;8990;33.226;-97.150;2023-12-14T01:22:23;12.90;97.60
17740;DHT22;8990;33.226;-97.150;2023-12-14T01:24:53;12.80;97.70
17740;DHT22;8990;33.226;-97.150;2023-12-14T01:27:22;12.70;98.10
17740;DHT22;8990;33.226;-97.150;2023-12-14T01:29:51;12.70;98.00
17740;DHT22;8990;33.226;-97.150;2023-12-14T01:32:20;12.70;98.20
17740;DHT22;8990;33.226;-97.150;2023-12-14T01:34:50;12.60;98.30
17740;DHT22;8990;33.226;-97.150;2023-12-14T01:37:19;12.60;98.50
17740;DHT22;8990;33.226;-97.150;2023-12-14T01:39:48;12.60;98.80
17740;DHT22;8990;33.226;-97.150;2023-12-14T01:42:19;12.60;98.80
17740;DHT22;8990;33.226;-97.150;2023-12-14T01:44:48;12.60;99.20
17740;DHT22;8990;33.226;-97.150;2023-12-14T01:47:17;12.50;99.20
17740;DHT22;8990;33.226;-97.150;2023-12-14T01:49:46;12.50;99.60
17740;DHT22;8990;33.226;-97.150;2023-12-14T01:52:15;12.50;99.40
17740;DHT22;8990;33.226;-97.150;2023-12-14T01:54:44;12.50;99.70
17740;DHT22;8990;33.226;-97.150;2023-12-14T01:57:13;12.50;99.90
17740;DHT22;8990;33.226;-97.150;2023-12-14T01:59:44;12.40;99.90
17740;DHT22;8990;33.226;-97.150;2023-12-14T02:02:13;12.40;99.90
17740;DHT22;8990;33.226;-97.150;2023-12-14T02:04:42;12.40;99.90
17740;DHT22;8990;33.226;-97.150;2023-12-14T02:07:12;12.40;99.90
17740;DHT22;8990;33.226;-97.150;2023-12-14T02:09:41;12.40;99.90
17740;DHT22;8990;33.226;-97.150;2023-12-14T02:12:10;12.40;99.90
17740;DHT22;8990;33.226;-97.150;2023-12-14T02:14:39;12.40;99.90
17740;DHT22;8990;33.226;-97.150;2023-12-14T02:17:10;12.40;99.90
17740;DHT22;8990;33.226;-97.150;2023-12-14T02:19:39;12.40;99.90
17740;DHT22;8990;33.226;-97.150;2023-12-14T02:22:08;12.30;99.90
17740;DHT22;8990;33.226;-97.150;2023-12-14T02:24:39;12.30;99.90
17740;DHT22;8990;33.226;-97.150;2023-12-14T02:27:08;12.30;99.90
17740;DHT22;8990;33.226;-97.150;2023-12-14T02:29:37;12.30;99.90
17740;DHT22;8990;33.226;-97.150;2023-12-14T02:32:07;12.30;99.90
17740;DHT22;8990;33.226;-97.150;2023-12-14T02:34:36;12.30;99.90
17740;DHT22;8990;33.226;-97.150;2023-12-14T02:37:06;12.30;99.90
17740;DHT22;8990;33.226;-97.150;2023-12-14T02:39:35;12.20;99.90
17740;DHT22;8990;33.226;-97.150;2023-12-14T02:42:06;12.20;99.90
17740;DHT22;8990;33.226;-97.150;2023-12-14T02:44:35;12.20;99.90
17740;DHT22;8990;33.226;-97.150;2023-12-14T02:47:04;12.20;99.90
17740;DHT22;8990;33.226;-97.150;2023-12-14T02:49:33;12.20;99.90
17740;DHT22;8990;33.226;-97.150;2023-12-14T02:52:02;12.20;99.90
17740;DHT22;8990;33.226;-97.150;2023-12-14T02:54:31;12.20;99.90
17740;DHT22;8990;33.226;-97.150;2023-12-14T02:57:00;12.10;99.90
17740;DHT22;8990;33.226;-97.150;2023-12-14T02:59:31;12.10;99.90
17740;DHT22;8990;33.226;-97.150;2023-12-14T03:02:00;12.10;99.90
17740;DHT22;8990;33.226;-97.150;2023-12-14T03:04:31;12.10;99.90
17740;DHT22;8990;33.226;-97.150;2023-12-14T03:07:00;12.10;99.90
17740;DHT22;8990;33.226;-97.150;2023-12-14T03:09:30;12.10;99.90
17740;DHT22;8990;33.226;-97.150;2023-12-14T03:12:00;12.00;99.90
17740;DHT22;8990;33.226;-97.150;2023-12-14T03:14:33;12.00;99.90
17740;DHT22;8990;33.226;-97.150;2023-12-14T03:17:02;12.10;99.90
17740;DHT22;8990;33.226;-97.150;2023-12-14T03:19:32;12.00;99.90
17740;DHT22;8990;33.226;-97.150;2023-12-14T03:22:01;12.00;99.90
17740;DHT22;8990;33.226;-97.150;2023-12-14T03:24:30;12.00;99.90
17740;DHT22;8990;33.226;-97.150;2023-12-14T03:26:59;11.90;99.90
17740;DHT22;8990;33.226;-97.150;2023-12-14T03:29:30;11.90;99.90
17740;DHT22;8990;33.226;-97.150;2023-12-14T03:31:59;11.90;99.90
17740;DHT22;8990;33.226;-97.150;2023-12-14T03:34:28;11.90;99.90
17740;DHT22;8990;33.226;-97.150;2023-12-14T03:36:57;11.90;99.90
17740;DHT22;8990;33.226;-97.150;2023-12-14T03:39:26;11.80;99.90
17740;DHT22;8990;33.226;-97.150;2023-12-14T03:41:55;11.80;99.90
17740;DHT22;8990;33.226;-97.150;2023-12-14T03:44:25;11.80;99.90
17740;DHT22;8990;33.226;-97.150;2023-12-14T03:46:59;11.80;99.90
17740;DHT22;8990;33.226;-97.150;2023-12-14T03:49:28;11.80;99.90
17740;DHT22;8990;33.226;-97.150;2023-12-14T03:51:57;11.70;99.90
17740;DHT22;8990;33.226;-97.150;2023-12-14T03:54:26;11.70;99.90
17740;DHT22;8990;33.226;-97.150;2023-12-14T03:56:55;11.70;99.90
17740;DHT22;8990;33.226;-97.150;2023-12-14T03:59:24;11.70;99.90
17740;DHT22;8990;33.226;-97.150;2023-12-14T04:01:53;11.70;99.90
17740;DHT22;8990;33.226;-97.150;2023-12-14T04:04:24;11.70;99.90
17740;DHT22;8990;33.226;-97.150;2023-12-14T04:06:53;11.70;99.90
17740;DHT22;8990;33.226;-97.150;2023-12-14T04:09:22;11.70;99.90
17740;DHT22;8990;33.226;-97.150;2023-12-14T04:11:51;11.70;99.90
17740;DHT22;8990;33.226;-97.150;2023-12-14T04:14:20;11.70;99.90
17740;DHT22;8990;33.226;-97.150;2023-12-14T04:16:49;11.70;99.90
17740;DHT22;8990;33.226;-97.150;2023-12-14T04:19:18;11.70;99.90
17740;DHT22;8990;33.226;-97.150;2023-12-14T04:21:49;11.60;99.90
17740;DHT22;8990;33.226;-97.150;2023-12-14T04:24:18;11.60;99.90
17740;DHT22;8990;33.226;-97.150;2023-12-14T04:26:46;11.60;99.90
17740;DHT22;8990;33.226;-97.150;2023-12-14T04:29:16;11.60;99.90
17740;DHT22;8990;33.226;-97.150;2023-12-14T04:31:45;11.60;99.90
17740;DHT22;8990;33.226;-97.150;2023-12-14T04:34:14;11.60;99.90
17740;DHT22;8990;33.226;-97.150;2023-12-14T04:36:45;11.60;99.90
17740;DHT22;8990;33.226;-97.150;2023-12-14T04:39:16;11.60;99.90
17740;DHT22;8990;33.226;-97.150;2023-12-14T04:41:45;11.60;99.90
17740;DHT22;8990;33.226;-97.150;2023-12-14T04:44:15;11.50;99.90
17740;DHT22;8990;33.226;-97.150;2023-12-14T04:46:43;11.50;99.90
17740;DHT22;8990;33.226;-97.150;2023-12-14T04:49:12;11.50;99.90
17740;DHT22;8990;33.226;-97.150;2023-12-14T04:51:41;11.50;99.90
17740;DHT22;8990;33.226;-97.150;2023-12-14T04:54:11;11.50;99.90
17740;DHT22;8990;33.226;-97.150;2023-12-14T04:56:42;11.50;99.90
17740;DHT22;8990;33.226;-97.150;2023-12-14T04:59:14;11.50;99.90
17740;DHT22;8990;33.226;-97.150;2023-12-14T05:01:48;11.50;99.90
17740;DHT22;8990;33.226;-97.150;2023-12-14T05:04:17;11.50;99.90
17740;DHT22;8990;33.226;-97.150;2023-12-14T05:06:46;11.40;99.90
17740;DHT22;8990;33.226;-97.150;2023-12-14T05:09:15;11.40;99.90
17740;DHT22;8990;33.226;-97.150;2023-12-14T05:11:46;11.40;99.90
17740;DHT22;8990;33.226;-97.150;2023-12-14T05:14:15;11.40;99.90
17740;DHT22;8990;33.226;-97.150;2023-12-14T05:16:44;11.30;99.90
17740;DHT22;8990;33.226;-97.150;2023-12-14T05:19:13;11.30;99.90
17740;DHT22;8990;33.226;-97.150;2023-12-14T05:21:44;11.30;99.90
17740;DHT22;8990;33.226;-97.150;2023-12-14T05:24:14;11.30;99.90
17740;DHT22;8990;33.226;-97.150;2023-12-14T05:26:45;11.30;99.90
17740;DHT22;8990;33.226;-97.150;2023-12-14T05:29:14;11.30;99.90
17740;DHT22;8990;33.226;-97.150;2023-12-14T05:31:44;11.30;99.90
17740;DHT22;8990;33.226;-97.150;2023-12-14T05:34:13;11.20;99.90
17740;DHT22;8990;33.226;-97.150;2023-12-14T05:36:43;11.10;99.90
17740;DHT22;8990;33.226;-97.150;2023-12-14T05:39:13;11.10;99.90
17740;DHT22;8990;33.226;-97.150;2023-12-14T05:41:42;11.10;99.90
17740;DHT22;8990;33.226;-97.150;2023-12-14T05:44:12;11.00;99.90
17740;DHT22;8990;33.226;-97.150;2023-12-14T05:46:42;11.00;99.90
17740;DHT22;8990;33.226;-97.150;2023-12-14T05:49:11;11.00;99.90
17740;DHT22;8990;33.226;-97.150;2023-12-14T05:51:40;10.90;99.90
17740;DHT22;8990;33.226;-97.150;2023-12-14T05:54:11;10.90;99.90
17740;DHT22;8990;33.226;-97.150;2023-12-14T05:56:40;10.80;99.90
17740;DHT22;8990;33.226;-97.150;2023-12-14T05:59:14;10.80;99.90
17740;DHT22;8990;33.226;-97.150;2023-12-14T06:01:43;10.80;99.90
17740;DHT22;8990;33.226;-97.150;2023-12-14T06:04:11;10.80;99.90
17740;DHT22;8990;33.226;-97.150;2023-12-14T06:06:41;10.80;99.90
17740;DHT22;8990;33.226;-97.150;2023-12-14T06:09:10;10.80;99.90
17740;DHT22;8990;33.226;-97.150;2023-12-14T06:11:39;10.80;99.90
17740;DHT22;8990;33.226;-97.150;2023-12-14T06:14:08;10.80;99.90
17740;DHT22;8990;33.226;-97.150;2023-12-14T06:16:39;10.70;99.90
17740;DHT22;8990;33.226;-97.150;2023-12-14T06:19:09;10.70;99.90
17740;DHT22;8990;33.226;-97.150;2023-12-14T06:21:38;10.70;99.90
17740;DHT22;8990;33.226;-97.150;2023-12-14T06:24:07;10.60;99.90
17740;DHT22;8990;33.226;-97.150;2023-12-14T06:26:42;10.60;99.90
17740;DHT22;8990;33.226;-97.150;2023-12-14T06:29:11;10.60;99.90
17740;DHT22;8990;33.226;-97.150;2023-12-14T06:31:43;10.60;99.90
17740;DHT22;8990;33.226;-97.150;2023-12-14T06:34:14;10.50;99.90
17740;DHT22;8990;33.226;-97.150;2023-12-14T06:36:43;10.50;99.90
17740;DHT22;8990;33.226;-97.150;2023-12-14T06:39:12;10.50;99.90
17740;DHT22;8990;33.226;-97.150;2023-12-14T06:41:42;10.50;99.90
17740;DHT22;8990;33.226;-97.150;2023-12-14T06:44:11;10.40;99.90
17740;DHT22;8990;33.226;-97.150;2023-12-14T06:46:41;10.40;99.90
17740;DHT22;8990;33.226;-97.150;2023-12-14T06:49:10;10.40;99.90
17740;DHT22;8990;33.226;-97.150;2023-12-14T06:51:39;10.40;99.90
17740;DHT22;8990;33.226;-97.150;2023-12-14T06:54:08;10.30;99.90
17740;DHT22;8990;33.226;-97.150;2023-12-14T06:56:38;10.20;99.90
17740;DHT22;8990;33.226;-97.150;2023-12-14T06:59:07;10.20;99.90
17740;DHT22;8990;33.226;-97.150;2023-12-14T07:01:36;10.20;99.90
17740;DHT22;8990;33.226;-97.150;2023-12-14T07:04:06;10.10;99.90
17740;DHT22;8990;33.226;-97.150;2023-12-14T07:06:37;10.10;99.90
17740;DHT22;8990;33.226;-97.150;2023-12-14T07:09:06;10.10;99.90
17740;DHT22;8990;33.226;-97.150;2023-12-14T07:11:35;10.00;99.90
17740;DHT22;8990;33.226;-97.150;2023-12-14T07:14:04;9.90;99.90
17740;DHT22;8990;33.226;-97.150;2023-12-14T07:16:33;9.90;99.90
17740;DHT22;8990;33.226;-97.150;2023-12-14T07:19:02;9.80;99.90
17740;DHT22;8990;33.226;-97.150;2023-12-14T07:21:32;9.80;99.90
17740;DHT22;8990;33.226;-97.150;2023-12-14T07:24:01;9.70;99.90
17740;DHT22;8990;33.226;-97.150;2023-12-14T07:26:30;9.70;99.90
17740;DHT22;8990;33.226;-97.150;2023-12-14T07:28:59;9.60;99.90
17740;DHT22;8990;33.226;-97.150;2023-12-14T07:31:28;9.60;99.90
17740;DHT22;8990;33.226;-97.150;2023-12-14T07:33:57;9.60;99.90
17740;DHT22;8990;33.226;-97.150;2023-12-14T07:36:26;9.50;99.90
17740;DHT22;8990;33.226;-97.150;2023-12-14T07:38:57;9.50;99.90
17740;DHT22;8990;33.226;-97.150;2023-12-14T07:41:28;9.40;99.90
17740;DHT22;8990;33.226;-97.150;2023-12-14T07:43:59;9.40;99.90
17740;DHT22;8990;33.226;-97.150;2023-12-14T07:46:28;9.40;99.90
17740;DHT22;8990;33.226;-97.150;2023-12-14T07:48:57;9.40;99.90
17740;DHT22;8990;33.226;-97.150;2023-12-14T07:51:27;9.40;99.90
17740;DHT22;8990;33.226;-97.150;2023-12-14T07:53:57;9.40;99.90
17740;DHT22;8990;33.226;-97.150;2023-12-14T07:56:45;9.30;99.90
17740;DHT22;8990;33.226;-97.150;2023-12-14T07:59:14;9.30;99.90
17740;DHT22;8990;33.226;-97.150;2023-12-14T08:01:43;9.30;99.90
17740;DHT22;8990;33.226;-97.150;2023-12-14T08:04:12;9.20;99.90
17740;DHT22;8990;33.226;-97.150;2023-12-14T08:06:41;9.20;99.90
17740;DHT22;8990;33.226;-97.150;2023-12-14T08:09:12;9.20;99.90
17740;DHT22;8990;33.226;-97.150;2023-12-14T08:11:41;9.20;99.90
17740;DHT22;8990;33.226;-97.150;2023-12-14T08:14:10;9.20;99.90
17740;DHT22;8990;33.226;-97.150;2023-12-14T08:16:39;9.20;99.90
17740;DHT22;8990;33.226;-97.150;2023-12-14T08:19:08;9.10;99.90
17740;DHT22;8990;33.226;-97.150;2023-12-14T08:21:38;9.10;99.90
17740;DHT22;8990;33.226;-97.150;2023-12-14T08:24:07;9.10;99.90
17740;DHT22;8990;33.226;-97.150;2023-12-14T08:26:38;9.10;99.90
17740;DHT22;8990;33.226;-97.150;2023-12-14T08:29:07;9.10;99.90
17740;DHT22;8990;33.226;-97.150;2023-12-14T08:31:36;9.10;99.90
17740;DHT22;8990;33.226;-97.150;2023-12-14T08:34:05;9.10;99.90
17740;DHT22;8990;33.226;-97.150;2023-12-14T08:36:33;9.10;99.90
17740;DHT22;8990;33.226;-97.150;2023-12-14T08:39:03;9.10;99.90
17740;DHT22;8990;33.226;-97.150;2023-12-14T08:41:32;9.00;99.90
17740;DHT22;8990;33.226;-97.150;2023-12-14T08:44:02;9.00;99.90
17740;DHT22;8990;33.226;-97.150;2023-12-14T08:46:39;9.00;99.90
17740;DHT22;8990;33.226;-97.150;2023-12-14T08:49:08;9.00;99.90
17740;DHT22;8990;33.226;-97.150;2023-12-14T08:51:37;8.90;99.90
17740;DHT22;8990;33.226;-97.150;2023-12-14T08:54:07;8.90;99.90
17740;DHT22;8990;33.226;-97.150;2023-12-14T08:56:36;8.90;99.90
17740;DHT22;8990;33.226;-97.150;2023-12-14T08:59:06;8.90;99.90
17740;DHT22;8990;33.226;-97.150;2023-12-14T09:01:36;8.90;99.90
17740;DHT22;8990;33.226;-97.150;2023-12-14T09:04:05;8.90;99.90
17740;DHT22;8990;33.226;-97.150;2023-12-14T09:06:34;8.80;99.90
17740;DHT22;8990;33.226;-97.150;2023-12-14T09:09:03;8.80;99.90
17740;DHT22;8990;33.226;-97.150;2023-12-14T09:11:32;8.70;99.90
17740;DHT22;8990;33.226;-97.150;2023-12-14T09:14:03;8.70;99.90
17740;DHT22;8990;33.226;-97.150;2023-12-14T09:16:33;8.70;99.90
17740;DHT22;8990;33.226;-97.150;2023-12-14T09:19:02;8.70;99.90
17740;DHT22;8990;33.226;-97.150;2023-12-14T09:21:31;8.70;99.90
17740;DHT22;8990;33.226;-97.150;2023-12-14T09:24:01;8.70;99.90
17740;DHT22;8990;33.226;-97.150;2023-12-14T09:26:30;8.70;99.90
17740;DHT22;8990;33.226;-97.150;2023-12-14T09:28:59;8.70;99.90
17740;DHT22;8990;33.226;-97.150;2023-12-14T09:31:29;8.70;99.90
17740;DHT22;8990;33.226;-97.150;2023-12-14T09:34:00;8.70;99.90
17740;DHT22;8990;33.226;-97.150;2023-12-14T09:36:29;8.70;99.90
17740;DHT22;8990;33.226;-97.150;2023-12-14T09:38:58;8.70;99.90
17740;DHT22;8990;33.226;-97.150;2023-12-14T09:41:27;8.70;99.90
17740;DHT22;8990;33.226;-97.150;2023-12-14T09:43:56;8.70;99.90
17740;DHT22;8990;33.226;-97.150;2023-12-14T09:46:27;8.70;99.90
17740;DHT22;8990;33.226;-97.150;2023-12-14T09:49:00;8.70;99.90
17740;DHT22;8990;33.226;-97.150;2023-12-14T09:51:30;8.60;99.90
17740;DHT22;8990;33.226;-97.150;2023-12-14T09:53:59;8.60;99.90
17740;DHT22;8990;33.226;-97.150;2023-12-14T09:56:28;8.60;99.90
17740;DHT22;8990;33.226;-97.150;2023-12-14T09:58:57;8.50;99.90
17740;DHT22;8990;33.226;-97.150;2023-12-14T10:01:28;8.50;99.90
17740;DHT22;8990;33.226;-97.150;2023-12-14T10:04:13;8.50;99.90
17740;DHT22;8990;33.226;-97.150;2023-12-14T10:06:44;8.50;99.90
17740;DHT22;8990;33.226;-97.150;2023-12-14T10:09:14;8.50;99.90
17740;DHT22;8990;33.226;-97.150;2023-12-14T10:11:46;8.40;99.90
17740;DHT22;8990;33.226;-97.150;2023-12-14T10:14:19;8.40;99.90
17740;DHT22;8990;33.226;-97.150;2023-12-14T10:16:49;8.40;99.90
17740;DHT22;8990;33.226;-97.150;2023-12-14T10:19:21;8.40;99.90
17740;DHT22;8990;33.226;-97.150;2023-12-14T10:21:51;8.40;99.90
17740;DHT22;8990;33.226;-97.150;2023-12-14T10:24:20;8.30;99.90
17740;DHT22;8990;33.226;-97.150;2023-12-14T10:26:50;8.30;99.90
17740;DHT22;8990;33.226;-97.150;2023-12-14T10:29:20;8.30;99.90
17740;DHT22;8990;33.226;-97.150;2023-12-14T10:31:50;8.30;99.90
17740;DHT22;8990;33.226;-97.150;2023-12-14T10:34:21;8.30;99.90
17740;DHT22;8990;33.226;-97.150;2023-12-14T10:36:51;8.20;99.90
17740;DHT22;8990;33.226;-97.150;2023-12-14T10:39:21;8.20;99.90
17740;DHT22;8990;33.226;-97.150;2023-12-14T10:41:52;8.20;99.90
17740;DHT22;8990;33.226;-97.150;2023-12-14T10:44:26;8.20;99.90
17740;DHT22;8990;33.226;-97.150;2023-12-14T10:46:58;8.20;99.90
17740;DHT22;8990;33.226;-97.150;2023-12-14T10:49:29;8.10;99.90
17740;DHT22;8990;33.226;-97.150;2023-12-14T10:51:59;8.10;99.90
17740;DHT22;8990;33.226;-97.150;2023-12-14T10:54:31;8.10;99.90
17740;DHT22;8990;33.226;-97.150;2023-12-14T10:57:02;8.00;99.90
17740;DHT22;8990;33.226;-97.150;2023-12-14T10:59:33;8.10;99.90
17740;DHT22;8990;33.226;-97.150;2023-12-14T11:02:08;8.00;99.90
17740;DHT22;8990;33.226;-97.150;2023-12-14T11:05:00;8.00;99.90
17740;DHT22;8990;33.226;-97.150;2023-12-14T11:07:46;8.00;99.90
17740;DHT22;8990;33.226;-97.150;2023-12-14T11:10:19;7.90;99.90
17740;DHT22;8990;33.226;-97.150;2023-12-14T11:12:56;7.90;99.90
17740;DHT22;8990;33.226;-97.150;2023-12-14T11:15:28;7.90;99.90
17740;DHT22;8990;33.226;-97.150;2023-12-14T11:18:22;7.90;99.90
17740;DHT22;8990;33.226;-97.150;2023-12-14T11:20:55;7.90;99.90
17740;DHT22;8990;33.226;-97.150;2023-12-14T11:23:35;7.90;99.90
17740;DHT22;8990;33.226;-97.150;2023-12-14T11:26:09;7.90;99.90
17740;DHT22;8990;33.226;-97.150;2023-12-14T11:28:39;7.90;99.90
17740;DHT22;8990;33.226;-97.150;2023-12-14T11:31:11;7.90;99.90
17740;DHT22;8990;33.226;-97.150;2023-12-14T11:33:40;7.90;99.90
17740;DHT22;8990;33.226;-97.150;2023-12-14T11:36:13;8.00;99.90
17740;DHT22;8990;33.226;-97.150;2023-12-14T11:38:43;8.00;99.90
17740;DHT22;8990;33.226;-97.150;2023-12-14T11:41:12;8.00;99.90
17740;DHT22;8990;33.226;-97.150;2023-12-14T11:43:42;8.00;99.90
17740;DHT22;8990;33.226;-97.150;2023-12-14T11:46:11;8.00;99.90
17740;DHT22;8990;33.226;-97.150;2023-12-14T11:48:43;8.00;99.90
17740;DHT22;8990;33.226;-97.150;2023-12-14T11:51:14;8.00;99.90
17740;DHT22;8990;33.226;-97.150;2023-12-14T11:53:45;8.00;99.90
17740;DHT22;8990;33.226;-97.150;2023-12-14T11:56:17;8.00;99.90
17740;DHT22;8990;33.226;-97.150;2023-12-14T11:58:47;8.00;99.90
17740;DHT22;8990;33.226;-97.150;2023-12-14T12:01:16;8.00;99.90
17740;DHT22;8990;33.226;-97.150;2023-12-14T12:03:46;8.00;99.90
17740;DHT22;8990;33.226;-97.150;2023-12-14T12:06:24;8.00;99.90
17740;DHT22;8990;33.226;-97.150;2023-12-14T12:08:54;8.00;99.90
17740;DHT22;8990;33.226;-97.150;2023-12-14T12:11:24;8.00;99.90
17740;DHT22;8990;33.226;-97.150;2023-12-14T12:13:55;8.00;99.90
17740;DHT22;8990;33.226;-97.150;2023-12-14T12:16:25;8.00;99.90
17740;DHT22;8990;33.226;-97.150;2023-12-14T12:18:54;8.00;99.90
17740;DHT22;8990;33.226;-97.150;2023-12-14T12:21:25;8.00;99.90
17740;DHT22;8990;33.226;-97.150;2023-12-14T12:23:54;8.00;99.90
17740;DHT22;8990;33.226;-97.150;2023-12-14T12:26:23;8.00;99.90
17740;DHT22;8990;33.226;-97.150;2023-12-14T12:28:52;8.00;99.90
17740;DHT22;8990;33.226;-97.150;2023-12-14T12:31:21;8.00;99.90
17740;DHT22;8990;33.226;-97.150;2023-12-14T12:33:50;8.00;99.90
17740;DHT22;8990;33.226;-97.150;2023-12-14T12:36:19;8.00;99.90
17740;DHT22;8990;33.226;-97.150;2023-12-14T12:38:50;8.00;99.90
17740;DHT22;8990;33.226;-97.150;2023-12-14T12:41:19;8.00;99.90
17740;DHT22;8990;33.226;-97.150;2023-12-14T12:43:48;8.00;99.90
17740;DHT22;8990;33.226;-97.150;2023-12-14T12:46:18;8.00;99.90
17740;DHT22;8990;33.226;-97.150;2023-12-14T12:48:46;8.00;99.90
17740;DHT22;8990;33.226;-97.150;2023-12-14T12:51:16;8.00;99.90
17740;DHT22;8990;33.226;-97.150;2023-12-14T12:53:45;7.90;99.90
17740;DHT22;8990;33.226;-97.150;2023-12-14T12:56:16;7.90;99.90
17740;DHT22;8990;33.226;-97.150;2023-12-14T12:58:45;7.90;99.90
17740;DHT22;8990;33.226;-97.150;2023-12-14T13:01:16;7.80;99.90
17740;DHT22;8990;33.226;-97.150;2023-12-14T13:03:45;7.80;99.90
17740;DHT22;8990;33.226;-97.150;2023-12-14T13:06:14;7.70;99.90
17740;DHT22;8990;33.226;-97.150;2023-12-14T13:08:43;7.70;99.90
17740;DHT22;8990;33.226;-97.150;2023-12-14T13:11:12;7.60;99.90
17740;DHT22;8990;33.226;-97.150;2023-12-14T13:13:42;7.50;99.90
17740;DHT22;8990;33.226;-97.150;2023-12-14T13:16:12;7.50;99.90
17740;DHT22;8990;33.226;-97.150;2023-12-14T13:18:41;7.40;99.90
17740;DHT22;8990;33.226;-97.150;2023-12-14T13:21:11;7.40;99.90
17740;DHT22;8990;33.226;-97.150;2023-12-14T13:23:40;7.30;99.90
17740;DHT22;8990;33.226;-97.150;2023-12-14T13:26:09;7.30;99.90
17740;DHT22;8990;33.226;-97.150;2023-12-14T13:28:38;7.20;99.90
17740;DHT22;8990;33.226;-97.150;2023-12-14T13:31:08;7.20;99.90
17740;DHT22;8990;33.226;-97.150;2023-12-14T13:33:38;7.20;99.90
17740;DHT22;8990;33.226;-97.150;2023-12-14T13:36:09;7.20;99.90
17740;DHT22;8990;33.226;-97.150;2023-12-14T13:38:38;7.20;99.90
17740;DHT22;8990;33.226;-97.150;2023-12-14T13:41:08;7.20;99.90
17740;DHT22;8990;33.226;-97.150;2023-12-14T13:43:37;7.20;99.90
17740;DHT22;8990;33.226;-97.150;2023-12-14T13:46:08;7.10;99.90
17740;DHT22;8990;33.226;-97.150;2023-12-14T13:48:37;7.20;99.90
17740;DHT22;8990;33.226;-97.150;2023-12-14T13:51:06;7.20;99.90
17740;DHT22;8990;33.226;-97.150;2023-12-14T13:53:35;7.20;99.90
17740;DHT22;8990;33.226;-97.150;2023-12-14T13:56:05;7.20;99.90
17740;DHT22;8990;33.226;-97.150;2023-12-14T13:58:34;7.20;99.90
17740;DHT22;8990;33.226;-97.150;2023-12-14T14:01:07;7.20;99.90
17740;DHT22;8990;33.226;-97.150;2023-12-14T14:03:36;7.30;99.90
17740;DHT22;8990;33.226;-97.150;2023-12-14T14:06:06;7.30;99.90
17740;DHT22;8990;33.226;-97.150;2023-12-14T14:08:35;7.30;99.90
17740;DHT22;8990;33.226;-97.150;2023-12-14T14:11:04;7.30;99.90
17740;DHT22;8990;33.226;-97.150;2023-12-14T14:13:33;7.40;99.90
17740;DHT22;8990;33.226;-97.150;2023-12-14T14:16:02;7.40;99.90
17740;DHT22;8990;33.226;-97.150;2023-12-14T14:18:33;7.40;99.90
17740;DHT22;8990;33.226;-97.150;2023-12-14T14:21:03;7.50;99.90
17740;DHT22;8990;33.226;-97.150;2023-12-14T14:23:34;7.50;99.90
17740;DHT22;8990;33.226;-97.150;2023-12-14T14:26:04;7.50;99.90
17740;DHT22;8990;33.226;-97.150;2023-12-14T14:28:33;7.60;99.90
17740;DHT22;8990;33.226;-97.150;2023-12-14T14:31:02;7.60;99.90
17740;DHT22;8990;33.226;-97.150;2023-12-14T14:33:33;7.70;99.90
17740;DHT22;8990;33.226;-97.150;2023-12-14T14:36:02;7.70;99.90
17740;DHT22;8990;33.226;-97.150;2023-12-14T14:38:32;7.80;99.90
17740;DHT22;8990;33.226;-97.150;2023-12-14T14:41:01;7.80;99.90
17740;DHT22;8990;33.226;-97.150;2023-12-14T14:43:30;7.80;99.90
17740;DHT22;8990;33.226;-97.150;2023-12-14T14:45:59;7.90;99.90
17740;DHT22;8990;33.226;-97.150;2023-12-14T14:48:28;8.00;99.90
17740;DHT22;8990;33.226;-97.150;2023-12-14T14:50:59;8.00;99.90
17740;DHT22;8990;33.226;-97.150;2023-12-14T14:53:28;8.10;99.90
17740;DHT22;8990;33.226;-97.150;2023-12-14T14:55:57;8.10;99.90
17740;DHT22;8990;33.226;-97.150;2023-12-14T14:58:27;8.30;99.90
17740;DHT22;8990;33.226;-97.150;2023-12-14T15:00:55;8.30;99.90
17740;DHT22;8990;33.226;-97.150;2023-12-14T15:03:25;8.30;99.90
17740;DHT22;8990;33.226;-97.150;2023-12-14T15:05:53;8.40;99.90
17740;DHT22;8990;33.226;-97.150;2023-12-14T15:08:24;8.50;99.90
17740;DHT22;8990;33.226;-97.150;2023-12-14T15:10:53;8.60;99.90
17740;DHT22;8990;33.226;-97.150;2023-12-14T15:13:24;8.70;99.90
17740;DHT22;8990;33.226;-97.150;2023-12-14T15:15:55;8.80;99.90
17740;DHT22;8990;33.226;-97.150;2023-12-14T15:18:24;9.00;99.90
17740;DHT22;8990;33.226;-97.150;2023-12-14T15:20:53;9.10;99.90
17740;DHT22;8990;33.226;-97.150;2023-12-14T15:23:24;9.30;99.90
17740;DHT22;8990;33.226;-97.150;2023-12-14T15:25:53;9.40;99.90
17740;DHT22;8990;33.226;-97.150;2023-12-14T15:28:22;9.60;99.90
17740;DHT22;8990;33.226;-97.150;2023-12-14T15:30:52;9.70;99.90
17740;DHT22;8990;33.226;-97.150;2023-12-14T15:33:21;9.80;99.90
17740;DHT22;8990;33.226;-97.150;2023-12-14T15:35:50;9.90;99.90
17740;DHT22;8990;33.226;-97.150;2023-12-14T15:38:19;9.90;99.90
17740;DHT22;8990;33.226;-97.150;2023-12-14T15:40:49;9.90;99.90